createdAt,value
2023-04-16T00:01:21.615Z,52.96
2023-04-16T00:03:48.307Z,53.87
2023-04-16T00:06:14.919Z,54.04
2023-04-16T00:08:41.433Z,52.47
2023-04-16T00:11:07.759Z,52.83
2023-04-16T00:13:34.031Z,52.59
2023-04-16T00:16:00.305Z,52.41
2023-04-16T00:18:27.534Z,51.87
2023-04-16T00:20:54.605Z,52.70
2023-04-16T00:23:21.401Z,52.59
2023-04-16T00:25:47.689Z,53.14
2023-04-16T00:28:13.990Z,51.87
2023-04-16T00:30:40.490Z,51.99
2023-04-16T00:33:06.953Z,52.06
2023-04-16T00:35:33.250Z,51.86
2023-04-16T00:37:59.531Z,51.81
2023-04-16T00:40:29.156Z,52.59
2023-04-16T00:42:55.474Z,51.67
2023-04-16T00:45:21.826Z,51.85
2023-04-16T00:47:48.170Z,52.03
2023-04-16T00:50:14.552Z,51.69
2023-04-16T00:52:40.888Z,50.76
2023-04-16T00:55:07.438Z,51.24
2023-04-16T00:57:33.752Z,51.03
2023-04-16T01:00:00.287Z,51.54
2023-04-16T01:02:26.694Z,52.07
2023-04-16T01:04:53.071Z,51.96
2023-04-16T01:07:19.397Z,52.37
2023-04-16T01:09:45.793Z,52.52
2023-04-16T01:12:12.097Z,52.13
2023-04-16T01:14:38.470Z,52.02
2023-04-16T01:17:04.809Z,51.63
2023-04-16T01:19:31.224Z,52.67
2023-04-16T01:21:58.305Z,52.28
2023-04-16T01:24:24.571Z,51.65
2023-04-16T01:26:50.859Z,51.12
2023-04-16T01:29:17.179Z,50.53
2023-04-16T01:31:43.544Z,49.48
2023-04-16T01:34:09.841Z,49.63
2023-04-16T01:36:36.163Z,49.48
2023-04-16T01:39:02.759Z,49.65
2023-04-16T01:41:29.072Z,49.97
2023-04-16T01:43:55.373Z,49.51
2023-04-16T01:46:23.676Z,50.52
2023-04-16T01:48:50.032Z,50.83
2023-04-16T01:51:16.417Z,50.86
2023-04-16T01:53:42.708Z,50.25
2023-04-16T01:56:09.006Z,50.19
2023-04-16T01:58:35.344Z,50.31
2023-04-16T02:01:01.721Z,51.20
2023-04-16T02:03:28.106Z,50.87
2023-04-16T02:05:54.713Z,51.71
2023-04-16T02:08:21.136Z,50.86
2023-04-16T02:10:47.657Z,51.97
2023-04-16T02:13:14.582Z,52.46
2023-04-16T02:15:44.354Z,52.10
2023-04-16T02:18:10.617Z,52.43
2023-04-16T02:20:40.073Z,53.35
2023-04-16T02:23:06.367Z,52.38
2023-04-16T02:25:32.953Z,51.81
2023-04-16T02:27:59.253Z,51.77
2023-04-16T02:30:25.564Z,51.82
2023-04-16T02:32:51.871Z,51.68
2023-04-16T02:35:18.187Z,50.67
2023-04-16T02:37:44.488Z,49.75
2023-04-16T02:40:11.165Z,50.64
2023-04-16T02:42:37.432Z,49.98
2023-04-16T02:45:03.737Z,49.93
2023-04-16T02:47:30.112Z,49.45
2023-04-16T02:49:56.457Z,50.05
2023-04-16T02:52:22.740Z,49.48
2023-04-16T02:54:49.030Z,49.89
2023-04-16T02:57:15.473Z,50.69
2023-04-16T02:59:41.762Z,51.08
2023-04-16T03:02:08.037Z,50.35
2023-04-16T03:04:34.432Z,50.44
2023-04-16T03:07:00.903Z,51.22
2023-04-16T03:09:27.332Z,51.69
2023-04-16T03:11:53.619Z,52.55
2023-04-16T03:14:19.910Z,52.97
2023-04-16T03:16:46.501Z,52.87
2023-04-16T03:19:12.793Z,52.92
2023-04-16T03:21:39.077Z,52.87
2023-04-16T03:24:05.591Z,53.15
2023-04-16T03:26:31.883Z,52.18
2023-04-16T03:28:58.171Z,51.63
2023-04-16T03:31:24.683Z,51.08
2023-04-16T03:33:51.710Z,51.09
2023-04-16T03:36:17.996Z,50.43
2023-04-16T03:38:44.285Z,50.48
2023-04-16T03:41:10.818Z,51.06
2023-04-16T03:43:37.134Z,50.36
2023-04-16T03:46:03.460Z,50.25
2023-04-16T03:48:29.755Z,50.69
2023-04-16T03:50:56.067Z,50.48
2023-04-16T03:53:22.399Z,50.75
2023-04-16T03:55:51.656Z,51.43
2023-04-16T03:58:18.131Z,50.31
2023-04-16T04:00:44.417Z,49.99
2023-04-16T04:03:11.369Z,50.23
2023-04-16T04:05:38.756Z,49.62
2023-04-16T04:08:05.383Z,49.93
2023-04-16T04:10:32.119Z,50.54
2023-04-16T04:12:58.399Z,50.71
2023-04-16T04:15:24.728Z,50.93
2023-04-16T04:17:51.136Z,50.94
2023-04-16T04:20:17.463Z,50.71
2023-04-16T04:22:43.746Z,50.99
2023-04-16T04:25:10.479Z,50.44
2023-04-16T04:27:36.762Z,50.77
2023-04-16T04:30:04.346Z,51.24
2023-04-16T04:32:31.175Z,51.09
2023-04-16T04:34:57.654Z,50.71
2023-04-16T04:37:23.961Z,50.06
2023-04-16T04:39:50.229Z,49.84
2023-04-16T04:42:19.963Z,50.29
2023-04-16T04:44:46.565Z,49.63
2023-04-16T04:47:13.005Z,49.32
2023-04-16T04:49:39.464Z,48.54
2023-04-16T04:52:06.073Z,49.72
2023-04-16T04:54:32.471Z,49.33
2023-04-16T04:56:58.906Z,49.34
2023-04-16T04:59:25.191Z,49.72
2023-04-16T05:01:51.537Z,49.95
2023-04-16T05:04:18.011Z,50.08
2023-04-16T05:06:44.337Z,49.77
2023-04-16T05:09:11.700Z,50.09
2023-04-16T05:11:38.672Z,48.97
2023-04-16T05:14:04.979Z,48.72
2023-04-16T05:16:31.316Z,48.84
2023-04-16T05:18:58.098Z,48.88
2023-04-16T05:21:24.872Z,49.11
2023-04-16T05:23:51.157Z,48.88
2023-04-16T05:26:17.434Z,49.33
2023-04-16T05:28:43.734Z,49.96
2023-04-16T05:31:10.133Z,49.43
2023-04-16T05:33:36.491Z,49.43
2023-04-16T05:36:02.777Z,49.92
2023-04-16T05:38:29.048Z,49.74
2023-04-16T05:40:55.571Z,49.07
2023-04-16T05:43:21.824Z,49.43
2023-04-16T05:45:48.129Z,49.40
2023-04-16T05:48:14.561Z,49.23
2023-04-16T05:50:40.849Z,49.69
2023-04-16T05:53:07.532Z,50.58
2023-04-16T05:55:33.928Z,50.20
2023-04-16T05:58:00.300Z,49.89
2023-04-16T06:00:27.111Z,49.74
2023-04-16T06:02:53.643Z,50.10
2023-04-16T06:05:20.107Z,50.44
2023-04-16T06:07:46.439Z,50.49
2023-04-16T06:10:12.744Z,50.62
2023-04-16T06:12:39.015Z,49.30
2023-04-16T06:15:05.779Z,48.92
2023-04-16T06:17:32.199Z,49.07
2023-04-16T06:19:58.526Z,49.50
2023-04-16T06:22:24.986Z,49.39
2023-04-16T06:24:51.321Z,48.74
2023-04-16T06:27:17.631Z,49.05
2023-04-16T06:29:44.381Z,49.23
2023-04-16T06:32:10.958Z,48.13
2023-04-16T06:34:37.729Z,48.72
2023-04-16T06:37:04.043Z,47.91
2023-04-16T06:39:30.377Z,48.92
2023-04-16T06:41:57.065Z,49.26
2023-04-16T06:44:23.363Z,48.98
2023-04-16T06:46:50.470Z,48.39
2023-04-16T06:49:16.804Z,47.73
2023-04-16T06:51:43.076Z,48.50
2023-04-16T06:54:09.432Z,48.65
2023-04-16T06:56:37.291Z,48.50
2023-04-16T06:59:03.917Z,50.44
2023-04-16T07:01:31.262Z,50.91
2023-04-16T07:03:58.036Z,51.56
2023-04-16T07:06:24.462Z,51.13
2023-04-16T07:08:50.733Z,49.86
2023-04-16T07:11:17.109Z,50.52
2023-04-16T07:13:43.390Z,51.79
2023-04-16T07:16:09.735Z,49.56
2023-04-16T07:18:36.083Z,48.63
2023-04-16T07:21:02.386Z,48.02
2023-04-16T07:23:28.719Z,46.36
2023-04-16T07:25:55.251Z,45.38
2023-04-16T07:28:21.678Z,45.50
2023-04-16T07:30:47.948Z,49.43
2023-04-16T07:33:14.287Z,50.20
2023-04-16T07:35:40.590Z,50.39
2023-04-16T07:38:06.884Z,50.85
2023-04-16T07:40:33.205Z,51.13
2023-04-16T07:42:59.513Z,51.23
2023-04-16T07:45:25.803Z,51.22
2023-04-16T07:47:52.138Z,51.59
2023-04-16T07:50:19.424Z,51.13
2023-04-16T07:52:46.613Z,50.91
2023-04-16T07:55:12.960Z,50.71
2023-04-16T07:57:39.880Z,50.02
2023-04-16T08:00:06.896Z,50.43
2023-04-16T08:02:33.286Z,50.02
2023-04-16T08:04:59.741Z,50.31
2023-04-16T08:07:26.042Z,50.39
2023-04-16T08:09:52.370Z,49.80
2023-04-16T08:12:18.700Z,49.38
2023-04-16T08:14:45.346Z,49.24
2023-04-16T08:17:11.977Z,50.33
2023-04-16T08:19:38.265Z,49.93
2023-04-16T08:22:04.601Z,49.47
2023-04-16T08:24:31.047Z,49.84
2023-04-16T08:27:11.268Z,49.63
2023-04-16T08:29:43.923Z,49.51
2023-04-16T08:32:10.328Z,48.89
2023-04-16T08:34:37.016Z,48.36
2023-04-16T08:37:03.384Z,47.62
2023-04-16T08:39:29.695Z,47.79
2023-04-16T08:41:56.020Z,49.22
2023-04-16T08:44:30.027Z,48.93
2023-04-16T08:46:58.272Z,49.08
2023-04-16T08:49:25.318Z,49.22
2023-04-16T08:51:54.493Z,47.44
2023-04-16T08:54:41.917Z,47.21
2023-04-16T08:57:08.438Z,46.83
2023-04-16T08:59:34.706Z,48.43
2023-04-16T09:02:01.082Z,46.86
2023-04-16T09:04:30.620Z,47.43
2023-04-16T09:06:57.375Z,46.54
2023-04-16T09:09:23.705Z,46.53
2023-04-16T09:11:50.809Z,45.95
2023-04-16T09:14:17.084Z,45.79
2023-04-16T09:16:43.510Z,45.21
2023-04-16T09:19:10.037Z,44.93
2023-04-16T09:21:36.570Z,46.41
2023-04-16T09:24:02.909Z,46.17
2023-04-16T09:26:29.197Z,46.38
2023-04-16T09:28:55.493Z,46.88
2023-04-16T09:31:21.826Z,47.29
2023-04-16T09:34:01.436Z,47.20
2023-04-16T09:36:28.054Z,47.11
2023-04-16T09:38:56.935Z,46.65
2023-04-16T09:41:28.222Z,45.45
2023-04-16T09:43:55.817Z,44.85
2023-04-16T09:46:22.254Z,46.83
2023-04-16T09:48:48.694Z,47.37
2023-04-16T09:51:14.987Z,46.96
2023-04-16T09:53:41.281Z,46.59
2023-04-16T09:56:08.430Z,46.16
2023-04-16T09:58:38.228Z,45.56
2023-04-16T10:01:08.392Z,45.12
2023-04-16T10:03:35.290Z,47.03
2023-04-16T10:06:06.916Z,47.39
2023-04-16T10:08:33.198Z,47.73
2023-04-16T10:10:59.568Z,48.01
2023-04-16T10:13:30.892Z,45.66
2023-04-16T10:15:57.376Z,46.40
2023-04-16T10:18:23.695Z,46.16
2023-04-16T10:20:50.296Z,45.44
2023-04-16T10:23:16.575Z,46.23
2023-04-16T10:25:42.901Z,45.60
2023-04-16T10:28:09.451Z,44.78
2023-04-16T10:30:36.363Z,46.60
2023-04-16T10:33:03.569Z,46.14
2023-04-16T10:35:29.967Z,46.06
2023-04-16T10:37:56.740Z,46.18
2023-04-16T10:40:23.749Z,45.48
2023-04-16T10:42:56.823Z,44.79
2023-04-16T10:45:26.763Z,44.22
2023-04-16T10:47:55.628Z,45.20
2023-04-16T10:50:22.102Z,44.68
2023-04-16T10:52:48.371Z,43.07
2023-04-16T10:55:16.677Z,43.53
2023-04-16T10:57:42.973Z,44.26
2023-04-16T11:00:22.195Z,44.12
2023-04-16T11:02:52.508Z,45.29
2023-04-16T11:05:21.653Z,45.18
2023-04-16T11:07:49.416Z,46.56
2023-04-16T11:10:16.435Z,45.06
2023-04-16T11:12:44.676Z,46.47
2023-04-16T11:15:11.970Z,46.47
2023-04-16T11:17:42.590Z,46.13
2023-04-16T11:20:18.879Z,47.75
2023-04-16T11:22:47.170Z,46.39
2023-04-16T11:25:13.459Z,46.45
2023-04-16T11:27:39.742Z,46.92
2023-04-16T11:30:09.711Z,45.63
2023-04-16T11:32:36.598Z,45.45
2023-04-16T11:35:04.638Z,44.93
2023-04-16T11:37:37.400Z,44.69
2023-04-16T11:40:07.034Z,45.14
2023-04-16T11:42:33.829Z,43.72
2023-04-16T11:45:03.017Z,45.11
2023-04-16T11:47:29.808Z,44.20
2023-04-16T11:49:56.234Z,43.95
2023-04-16T11:52:32.147Z,44.56
2023-04-16T11:54:58.706Z,43.65
2023-04-16T11:57:25.686Z,44.17
2023-04-16T12:00:01.337Z,43.67
2023-04-16T12:02:39.740Z,44.17
2023-04-16T12:05:07.491Z,43.27
2023-04-16T12:07:46.116Z,44.03
2023-04-16T12:10:12.459Z,42.96
2023-04-16T12:12:38.749Z,42.89
2023-04-16T12:15:05.217Z,42.71
2023-04-16T12:17:32.175Z,42.44
2023-04-16T12:19:59.787Z,43.37
2023-04-16T12:22:27.170Z,44.62
2023-04-16T12:24:59.689Z,43.63
2023-04-16T12:27:28.856Z,43.30
2023-04-16T12:30:04.996Z,45.11
2023-04-16T12:32:31.340Z,45.71
2023-04-16T12:34:57.693Z,46.14
2023-04-16T12:37:23.983Z,44.97
2023-04-16T12:39:50.489Z,43.52
2023-04-16T12:42:16.793Z,42.52
2023-04-16T12:44:43.131Z,43.03
2023-04-16T12:47:09.444Z,42.45
2023-04-16T12:49:35.874Z,43.29
2023-04-16T12:52:02.396Z,41.75
2023-04-16T12:54:30.971Z,42.23
2023-04-16T12:56:57.307Z,43.61
2023-04-16T12:59:23.755Z,44.21
2023-04-16T13:01:50.274Z,44.44
2023-04-16T13:04:17.828Z,43.04
2023-04-16T13:06:44.543Z,44.13
2023-04-16T13:09:11.816Z,43.31
2023-04-16T13:11:38.369Z,43.38
2023-04-16T13:14:04.645Z,42.21
2023-04-16T13:16:31.161Z,43.51
2023-04-16T13:18:57.439Z,43.46
2023-04-16T13:21:23.807Z,43.39
2023-04-16T13:23:50.195Z,42.48
2023-04-16T13:26:17.417Z,40.83
2023-04-16T13:28:43.808Z,40.23
2023-04-16T13:31:10.227Z,41.51
2023-04-16T13:33:36.516Z,40.79
2023-04-16T13:36:02.795Z,42.64
2023-04-16T13:38:29.077Z,42.32
2023-04-16T13:40:55.525Z,42.79
2023-04-16T13:43:22.284Z,42.44
2023-04-16T13:45:48.564Z,42.15
2023-04-16T13:48:14.850Z,42.50
2023-04-16T13:50:41.164Z,41.67
2023-04-16T13:53:07.478Z,41.29
2023-04-16T13:55:33.775Z,42.69
2023-04-16T13:58:00.261Z,43.89
2023-04-16T14:00:27.202Z,43.65
2023-04-16T14:02:53.607Z,42.59
2023-04-16T14:05:20.088Z,43.55
2023-04-16T14:07:46.394Z,43.37
2023-04-16T14:10:12.706Z,43.34
2023-04-16T14:12:39.036Z,42.76
2023-04-16T14:15:06.441Z,43.92
2023-04-16T14:17:32.780Z,42.21
2023-04-16T14:19:59.100Z,42.44
2023-04-16T14:22:25.389Z,42.17
2023-04-16T14:24:51.694Z,42.61
2023-04-16T14:27:18.019Z,42.16
2023-04-16T14:29:46.288Z,42.69
2023-04-16T14:32:12.659Z,42.28
2023-04-16T14:34:39.027Z,40.92
2023-04-16T14:37:05.582Z,40.72
2023-04-16T14:39:31.850Z,40.23
2023-04-16T14:41:58.116Z,39.09
2023-04-16T14:44:24.462Z,37.98
2023-04-16T14:46:50.870Z,40.35
2023-04-16T14:49:17.380Z,40.20
2023-04-16T14:51:44.839Z,40.50
2023-04-16T14:54:11.359Z,38.36
2023-04-16T14:56:37.729Z,40.09
2023-04-16T14:59:04.068Z,38.91
2023-04-16T15:01:30.490Z,38.86
2023-04-16T15:03:57.460Z,38.43
2023-04-16T15:06:24.233Z,38.96
2023-04-16T15:08:50.598Z,40.05
2023-04-16T15:11:16.999Z,39.48
2023-04-16T15:13:43.329Z,39.19
2023-04-16T15:16:09.663Z,39.24
2023-04-16T15:18:35.961Z,39.26
2023-04-16T15:21:02.233Z,38.97
2023-04-16T15:23:28.530Z,38.98
2023-04-16T15:25:54.814Z,38.35
2023-04-16T15:28:23.262Z,40.42
2023-04-16T15:30:49.798Z,38.71
2023-04-16T15:33:16.179Z,37.87
2023-04-16T15:35:42.481Z,38.12
2023-04-16T15:38:08.877Z,38.95
2023-04-16T15:40:35.392Z,38.63
2023-04-16T15:43:01.681Z,38.14
2023-04-16T15:45:27.975Z,38.54
2023-04-16T15:47:54.942Z,39.13
2023-04-16T15:50:21.729Z,39.07
2023-04-16T15:52:48.011Z,39.21
2023-04-16T15:55:14.506Z,38.32
2023-04-16T15:57:41.028Z,37.80
2023-04-16T16:00:13.766Z,38.15
2023-04-16T16:02:40.752Z,38.94
2023-04-16T16:05:09.247Z,38.47
2023-04-16T16:07:35.601Z,38.92
2023-04-16T16:10:01.994Z,39.88
2023-04-16T16:12:28.359Z,38.59
2023-04-16T16:14:54.695Z,39.68
2023-04-16T16:17:21.668Z,38.89
2023-04-16T16:19:48.017Z,38.30
2023-04-16T16:22:15.822Z,38.41
2023-04-16T16:24:42.159Z,38.15
2023-04-16T16:27:08.426Z,38.59
2023-04-16T16:29:34.699Z,39.51
2023-04-16T16:32:01.065Z,40.63
2023-04-16T16:34:28.128Z,40.55
2023-04-16T16:36:54.396Z,39.86
2023-04-16T16:39:24.263Z,40.45
2023-04-16T16:41:52.304Z,39.01
2023-04-16T16:44:19.187Z,38.87
2023-04-16T16:46:45.556Z,40.58
2023-04-16T16:49:12.047Z,39.74
2023-04-16T16:51:38.564Z,38.32
2023-04-16T16:54:05.497Z,38.29
2023-04-16T16:56:31.806Z,39.58
2023-04-16T16:58:58.243Z,44.43
2023-04-16T17:01:25.145Z,45.65
2023-04-16T17:03:51.749Z,46.23
2023-04-16T17:06:18.257Z,46.64
2023-04-16T17:08:44.592Z,46.75
2023-04-16T17:11:10.894Z,46.73
2023-04-16T17:13:37.302Z,43.65
2023-04-16T17:16:03.632Z,42.20
2023-04-16T17:18:29.931Z,41.40
2023-04-16T17:20:56.299Z,41.08
2023-04-16T17:23:22.609Z,45.21
2023-04-16T17:25:48.901Z,45.63
2023-04-16T17:28:15.267Z,46.36
2023-04-16T17:30:42.189Z,44.58
2023-04-16T17:33:08.540Z,43.91
2023-04-16T17:35:35.060Z,43.70
2023-04-16T17:38:01.430Z,43.22
2023-04-16T17:40:27.729Z,43.20
2023-04-16T17:42:54.007Z,44.27
2023-04-16T17:45:20.310Z,45.40
2023-04-16T17:47:46.648Z,44.97
2023-04-16T17:50:13.066Z,43.50
2023-04-16T17:52:39.507Z,46.12
2023-04-16T17:55:06.153Z,46.39
2023-04-16T17:57:32.527Z,45.32
2023-04-16T17:59:58.846Z,46.03
2023-04-16T18:02:25.485Z,45.83
2023-04-16T18:04:52.041Z,46.11
2023-04-16T18:07:18.357Z,46.13
2023-04-16T18:09:44.664Z,46.60
2023-04-16T18:12:11.006Z,46.29
2023-04-16T18:14:38.563Z,46.76
2023-04-16T18:17:06.360Z,46.75
2023-04-16T18:19:33.041Z,47.43
2023-04-16T18:21:59.385Z,48.18
2023-04-16T18:24:25.706Z,47.42
2023-04-16T18:29:19.073Z,46.91
2023-04-16T18:31:45.710Z,46.29
2023-04-16T18:34:12.554Z,46.40
2023-04-16T18:36:39.026Z,46.95
2023-04-16T18:39:07.316Z,47.15
2023-04-16T18:41:33.616Z,47.48
2023-04-16T18:43:59.927Z,46.70
2023-04-16T18:46:27.396Z,46.57
2023-04-16T18:48:54.110Z,47.60
2023-04-16T18:51:21.151Z,46.59
2023-04-16T18:53:47.469Z,47.38
2023-04-16T18:56:13.782Z,47.47
2023-04-16T18:58:40.147Z,47.51
2023-04-16T19:01:11.002Z,47.82
2023-04-16T19:03:37.773Z,47.03
2023-04-16T19:06:04.307Z,48.29
2023-04-16T19:08:30.618Z,47.51
2023-04-16T19:10:56.915Z,46.92
2023-04-16T19:13:23.184Z,47.65
2023-04-16T19:15:49.533Z,48.15
2023-04-16T19:18:16.034Z,48.31
2023-04-16T19:20:42.332Z,48.52
2023-04-16T19:23:09.189Z,48.34
2023-04-16T19:25:36.384Z,48.66
2023-04-16T19:28:03.611Z,48.46
2023-04-16T19:30:30.480Z,48.82
2023-04-16T19:32:56.882Z,48.91
2023-04-16T19:35:23.255Z,48.89
2023-04-16T19:37:50.380Z,49.64
2023-04-16T19:40:16.651Z,50.05
2023-04-16T19:42:45.132Z,49.50
2023-04-16T19:45:11.468Z,50.13
2023-04-16T19:47:37.801Z,49.12
2023-04-16T19:50:04.225Z,50.08
2023-04-16T19:52:30.527Z,49.92
2023-04-16T19:54:56.877Z,50.02
2023-04-16T19:57:23.173Z,49.84
2023-04-16T19:59:49.464Z,49.66
2023-04-16T20:02:15.807Z,50.34
2023-04-16T20:04:42.155Z,50.34
2023-04-16T20:07:08.411Z,50.16
2023-04-16T20:09:34.765Z,50.17
2023-04-16T20:12:01.921Z,49.67
2023-04-16T20:14:28.239Z,49.50
2023-04-16T20:16:54.576Z,49.95
2023-04-16T20:19:21.992Z,50.44
2023-04-16T20:21:48.303Z,50.05
2023-04-16T20:24:15.355Z,49.91
2023-04-16T20:26:41.858Z,49.30
2023-04-16T20:29:09.925Z,48.69
2023-04-16T20:31:36.550Z,49.01
2023-04-16T20:34:03.736Z,48.56
2023-04-16T20:36:30.345Z,48.45
2023-04-16T20:38:56.672Z,49.06
2023-04-16T20:41:25.054Z,49.07
2023-04-16T20:43:52.733Z,49.33
2023-04-16T20:46:23.899Z,48.69
2023-04-16T20:48:51.132Z,48.77
2023-04-16T20:51:17.430Z,48.65
2023-04-16T20:53:43.710Z,48.02
2023-04-16T20:56:12.026Z,48.53
2023-04-16T20:58:38.310Z,48.25
2023-04-16T21:01:05.853Z,47.56
2023-04-16T21:03:32.311Z,47.95
2023-04-16T21:05:58.690Z,48.27
2023-04-16T21:08:25.072Z,48.33
2023-04-16T21:10:51.356Z,48.98
2023-04-16T21:13:18.517Z,48.61
2023-04-16T21:15:45.093Z,48.33
2023-04-16T21:18:11.503Z,48.76
2023-04-16T21:20:37.786Z,48.62
2023-04-16T21:23:04.380Z,49.39
2023-04-16T21:25:31.035Z,49.73
2023-04-16T21:27:57.325Z,49.40
2023-04-16T21:30:23.625Z,50.10
2023-04-16T21:32:49.992Z,49.85
2023-04-16T21:35:16.347Z,49.28
2023-04-16T21:37:42.656Z,48.54
2023-04-16T21:40:09.251Z,48.68
2023-04-16T21:42:39.799Z,48.37
2023-04-16T21:45:07.415Z,48.52
2023-04-16T21:47:33.741Z,48.51
2023-04-16T21:50:00.157Z,48.15
2023-04-16T21:52:26.422Z,48.76
2023-04-16T21:54:52.758Z,48.78
2023-04-16T21:57:19.088Z,48.07
2023-04-16T21:59:45.502Z,48.14
2023-04-16T22:02:11.952Z,48.21
2023-04-16T22:04:38.907Z,48.31
2023-04-16T22:07:05.876Z,47.89
2023-04-16T22:09:32.479Z,48.22
2023-04-16T22:11:58.861Z,48.51
2023-04-16T22:14:25.726Z,48.78
2023-04-16T22:16:53.479Z,49.43
2023-04-16T22:19:21.473Z,49.56
2023-04-16T22:21:47.990Z,49.89
2023-04-16T22:24:14.351Z,49.72
2023-04-16T22:26:40.628Z,49.70
2023-04-16T22:29:06.924Z,50.20
2023-04-16T22:31:33.361Z,49.83
2023-04-16T22:34:00.984Z,49.89
2023-04-16T22:36:29.093Z,49.77
2023-04-16T22:38:55.607Z,49.95
2023-04-16T22:41:23.199Z,49.87
2023-04-16T22:43:51.214Z,49.95
2023-04-16T22:46:19.819Z,50.21
2023-04-16T22:48:46.204Z,50.19
2023-04-16T22:51:12.510Z,50.06
2023-04-16T22:53:38.864Z,49.81
2023-04-16T22:56:05.334Z,49.62
2023-04-16T22:58:31.675Z,49.53
2023-04-16T23:00:59.363Z,50.37
2023-04-16T23:03:26.029Z,51.05
2023-04-16T23:05:52.376Z,51.36
2023-04-16T23:08:18.670Z,51.56
2023-04-16T23:10:44.968Z,51.50
2023-04-16T23:13:11.327Z,51.18
2023-04-16T23:15:37.720Z,51.03
2023-04-16T23:18:04.054Z,50.95
2023-04-16T23:20:30.402Z,50.98
2023-04-16T23:22:56.702Z,51.06
2023-04-16T23:25:23.526Z,50.92
2023-04-16T23:27:49.813Z,51.16
2023-04-16T23:30:16.460Z,50.98
2023-04-16T23:32:42.848Z,51.00
2023-04-16T23:35:09.374Z,51.42
2023-04-16T23:37:35.663Z,51.55
2023-04-16T23:40:02.166Z,51.88
2023-04-16T23:42:28.492Z,52.27
2023-04-16T23:44:54.765Z,52.53
2023-04-16T23:47:21.139Z,52.37
2023-04-16T23:49:47.544Z,52.16
2023-04-16T23:52:13.836Z,52.04
2023-04-16T23:54:40.135Z,51.92
2023-04-16T23:57:06.471Z,51.98
2023-04-16T23:59:32.773Z,52.17
